• Join FlightAware (Why Join?)
  • Login
  • US Flag GB Flag 
01:28 EDT


 

Airport Tracker/Info


-or-


 

Live Flight TrackerFlight Track Log ✈ EJA929 ✈ 11-Apr-2013 ✈ KSDL - KFAT

Flight Track Log - Related Links

Times and Time Zones

All times are in EDT time to prevent confusion due to time zone crossing. See the EJA929 flight status page for this flight to view local times or setup timezone preferences in your user account.

Time Position Orientation Groundspeed Altitude Reporting Facility
EDT Latitude Longitude Course Direction KTS MPH feet Rate Location/Type
17:46 33.6150 -111.9614 259° West 224 258 4,000  Level Albuquerque Center
17:47 33.6458 -112.0347 297° West 252 290 7,500 3,300 Climbing Albuquerque Center
17:48 33.6917 -112.1272 301° West 272 313 10,900 2,460 Climbing Albuquerque Center
17:50 33.7719 -112.1744 334° Northwest 320 368 12,600 1,740 Climbing Albuquerque Center
17:51 33.8594 -112.2286 333° Northwest 347 399 14,500 2,220 Climbing Albuquerque Center
17:51 33.9186 -112.2678 331° Northwest 360 414 16,300 2,580 Climbing Albuquerque Center
17:52 33.9483 -112.2853 334° Northwest 357 411 17,200 2,580 Climbing Albuquerque Center
17:53 34.0367 -112.3422 332° Northwest 359 413 20,000 2,580 Climbing Albuquerque Center
17:54 34.1100 -112.4186 319° Northwest 348 400 22,500 2,160 Climbing Albuquerque Center
17:55 34.1850 -112.4958 320° Northwest 353 406 24,500 2,100 Climbing Albuquerque Center
17:56 34.2803 -112.5933 320° Northwest 373 429 26,900 2,160 Climbing Albuquerque Center
17:58 34.4433 -112.7656 319° Northwest 388 447 31,300 1,920 Climbing Albuquerque Center
17:59 34.5253 -112.8503 320° Northwest 403 464 32,900 1,500 Climbing Albuquerque Center
18:00 34.6144 -112.9431 319° Northwest 417 480 34,400 1,560 Climbing Albuquerque Center
18:01 34.7258 -113.0606 319° Northwest 437 503 36,200 1,560 Climbing Albuquerque Center
18:02 34.8192 -113.1600 319° Northwest 444 511 37,700 1,320 Climbing Albuquerque Center
18:03 34.9122 -113.2600 319° Northwest 445 512 39,000 1,080 Climbing Albuquerque Center
18:04 34.9928 -113.3683 312° West 436 502 40,000 480 Climbing Albuquerque Center
18:05 35.0422 -113.5047 294° West 436 502 40,000  Level Albuquerque Center
18:06 35.1119 -113.6325 304° West 448 516 40,000  Level Albuquerque Center
18:07 35.1844 -113.7622 304° West 458 527 40,000  Level Albuquerque Center
18:08 35.2714 -113.9167 305° West 461 531 40,000  Level Albuquerque Center
18:09 35.3567 -114.0672 305° West 464 534 40,000  Level Los Angeles Center
18:10 35.4294 -114.1969 305° West 463 533 40,000  Level Los Angeles Center
18:11 35.5172 -114.3536 305° West 462 532 40,000  Level Los Angeles Center
18:12 35.5892 -114.4856 304° West 464 534 40,000  Level Los Angeles Center
18:13 35.6611 -114.6150 304° West 460 529 40,000  Level Los Angeles Center
18:15 35.7331 -114.7456 304° West 460 529 40,000  Level Los Angeles Center
18:16 35.8050 -114.8761 304° West 460 529 40,000  Level Los Angeles Center
18:17 35.8900 -115.0314 304° West 456 525 40,000  Level Los Angeles Center
18:18 35.9619 -115.1633 304° West 462 532 40,000  Level Los Angeles Center
18:19 36.0342 -115.2978 304° West 468 539 40,000  Level Los Angeles Center
18:20 36.1067 -115.4300 304° West 465 535 40,000  Level Los Angeles Center
18:21 36.1778 -115.5642 303° West 461 531 40,000  Level Los Angeles Center
18:22 36.2514 -115.7028 303° West 467 537 40,000  Level Los Angeles Center
18:23 36.3244 -115.8408 303° West 470 541 40,000  Level Los Angeles Center
18:24 36.4044 -115.9897 304° West 468 539 40,000  Level Los Angeles Center
18:25 36.4753 -116.1222 304° West 463 533 40,000  Level Los Angeles Center
18:26 36.5456 -116.2581 303° West 466 536 40,000  Level Los Angeles Center
18:27 36.6164 -116.3922 303° West 464 534 40,000  Level Los Angeles Center
18:28 36.6875 -116.5283 303° West 466 536 40,000  Level Los Angeles Center
18:29 36.7731 -116.6933 303° West 472 543 40,000  Level Los Angeles Center
18:30 36.8681 -116.8058 317° Northwest 471 542 40,000  Level Los Angeles Center
18:31 36.9775 -116.8981 326° Northwest 473 544 40,000  Level Los Angeles Center
18:31 36.9994 -116.9153 328° Northwest 471 542 40,000  Level Oakland Center
18:32 37.1303 -117.0261 326° Northwest 473 544 40,000  Level Oakland Center
18:33 37.1869 -117.0944 316° Northwest 475 547 40,000  Level Los Angeles Center
18:33 37.2192 -117.1444 309° West 466 536 40,000  Level Oakland Center
18:34 37.3022 -117.2739 309° West 472 543 40,000 -420 Level Oakland Center
18:36 37.3853 -117.4003 310° West 470 541 39,200 -1,140 Descending Oakland Center
18:37 37.4667 -117.5197 311° West 454 522 37,800 -1,380 Descending Oakland Center
18:38 37.5442 -117.6344 310° West 434 499 36,400 -1,620 Descending Oakland Center
18:39 37.6189 -117.7533 308° West 431 496 34,500 -1,920 Descending Oakland Center
18:40 37.6928 -117.8750 308° West 432 497 32,500 -1,980 Descending Oakland Center
18:41 37.7339 -118.0217 290° West 461 531 30,500 -1,260 Descending Oakland Center
18:42 37.6942 -118.1817 253° West 483 556 30,000 -900 Descending Oakland Center
18:43 37.6036 -118.3628 238° Southwest 505 581 28,700 -1,740 Descending Oakland Center
18:44 37.5336 -118.5053 238° Southwest 484 557 26,500 -2,520 Descending Oakland Center
18:45 37.4639 -118.6483 238° Southwest 480 552 23,600 -2,220 Descending Oakland Center
18:46 37.3933 -118.7922 238° Southwest 482 555 22,000 -840 Descending Oakland Center
18:47 37.3208 -118.9361 238° Southwest 483 556 22,000 -900 Level Oakland Center
18:48 37.2533 -119.0778 239° Southwest 478 550 20,200 -1,860 Descending Oakland Center
18:49 37.1869 -119.2131 238° Southwest 457 526 18,200 -2,520 Descending Oakland Center
18:50 37.1764 -119.3528 265° West 423 487 15,100 -1,560 Descending Oakland Center
18:52 37.0177 -119.4986 236° Southwest  Level Estimated
18:53 37.1722 -119.7122 236° Southwest 332 382 11,900  Level Oakland Center
18:54 37.0828 -119.7447 196° South 336 387 11,200 -960 Descending Oakland Center
18:55 36.9969 -119.7753 196° South 319 367 10,000 -1,620 Descending Oakland Center
18:56 36.9206 -119.7519 166° South 293 337 8,000 -2,280 Descending Oakland Center
18:57 36.8494 -119.7092 154° Southeast 285 328 5,400 -2,580 Descending Oakland Center
18:58 36.7983 -119.6394 132° Southeast 275 316 2,800 -1,680 Descending Oakland Center
18:59 36.7400 -119.6067 156° South 223 257 2,000 -660 Descending Oakland Center
19:00 36.7364 -119.6514 264° West 138 159 1,500 -600 Descending Oakland Center
19:01 36.7583 -119.6889 306° West 126 145 800 -600 Descending Oakland Center
19:02 36.7783 -119.7239 306° West 124 143 300 -540 Descending Oakland Center